sensor_id;sensor_type;location;lat;lon;timestamp;pressure;altitude;pressure_sealevel;temperature;humidity
13456;BME280;6800;50.940;6.940;2023-02-28T00:04:01;102191.13;;;10.22;36.10
13456;BME280;6800;50.940;6.940;2023-02-28T00:08:02;102194.25;;;9.75;37.40
13456;BME280;6800;50.940;6.940;2023-02-28T00:12:04;102187.31;;;9.74;37.27
13456;BME280;6800;50.940;6.940;2023-02-28T00:16:13;102182.19;;;10.00;36.64
13456;BME280;6800;50.940;6.940;2023-02-28T00:20:16;102179.81;;;10.22;36.26
13456;BME280;6800;50.940;6.940;2023-02-28T00:24:18;102188.66;;;9.58;37.93
13456;BME280;6800;50.940;6.940;2023-02-28T00:28:20;102192.94;;;10.18;36.57
13456;BME280;6800;50.940;6.940;2023-02-28T00:32:22;102179.22;;;10.13;36.61
13456;BME280;6800;50.940;6.940;2023-02-28T00:36:23;102186.75;;;9.64;36.95
13456;BME280;6800;50.940;6.940;2023-02-28T00:40:24;102187.22;;;10.06;36.41
13456;BME280;6800;50.940;6.940;2023-02-28T00:44:26;102191.91;;;9.66;36.35
13456;BME280;6800;50.940;6.940;2023-02-28T00:48:27;102185.50;;;9.77;36.88
13456;BME280;6800;50.940;6.940;2023-02-28T00:52:29;102187.41;;;9.71;37.05
13456;BME280;6800;50.940;6.940;2023-02-28T00:56:30;102190.13;;;8.71;38.25
13456;BME280;6800;50.940;6.940;2023-02-28T01:00:32;102187.75;;;9.59;37.11
13456;BME280;6800;50.940;6.940;2023-02-28T01:04:33;102181.47;;;9.95;36.14
13456;BME280;6800;50.940;6.940;2023-02-28T01:08:35;102194.09;;;8.86;38.24
13456;BME280;6800;50.940;6.940;2023-02-28T01:12:36;102190.34;;;9.59;37.64
13456;BME280;6800;50.940;6.940;2023-02-28T01:16:37;102188.53;;;10.20;36.77
13456;BME280;6800;50.940;6.940;2023-02-28T01:20:39;102189.94;;;10.03;36.32
13456;BME280;6800;50.940;6.940;2023-02-28T01:24:40;102185.44;;;10.36;36.02
13456;BME280;6800;50.940;6.940;2023-02-28T01:28:42;102196.84;;;10.33;36.22
13456;BME280;6800;50.940;6.940;2023-02-28T01:32:43;102186.22;;;9.21;38.45
13456;BME280;6800;50.940;6.940;2023-02-28T01:36:45;102180.81;;;8.96;38.13
13456;BME280;6800;50.940;6.940;2023-02-28T01:40:47;102183.72;;;10.07;36.56
13456;BME280;6800;50.940;6.940;2023-02-28T01:44:59;102189.50;;;8.95;38.45
13456;BME280;6800;50.940;6.940;2023-02-28T01:49:13;102181.59;;;9.61;36.66
13456;BME280;6800;50.940;6.940;2023-02-28T01:53:18;102180.59;;;9.36;37.09
13456;BME280;6800;50.940;6.940;2023-02-28T01:57:24;102171.75;;;10.00;35.99
13456;BME280;6800;50.940;6.940;2023-02-28T02:01:27;102176.72;;;9.18;37.84
13456;BME280;6800;50.940;6.940;2023-02-28T02:05:30;102167.66;;;10.20;35.55
13456;BME280;6800;50.940;6.940;2023-02-28T02:09:35;102165.38;;;9.52;35.99
13456;BME280;6800;50.940;6.940;2023-02-28T02:13:59;102164.44;;;9.54;36.77
13456;BME280;6800;50.940;6.940;2023-02-28T02:27:03;102147.78;;;10.16;35.33
13456;BME280;6800;50.940;6.940;2023-02-28T02:31:38;102151.78;;;9.99;35.18
13456;BME280;6800;50.940;6.940;2023-02-28T02:40:13;102154.53;;;9.36;35.27
13456;BME280;6800;50.940;6.940;2023-02-28T02:44:34;102145.63;;;8.80;36.14
13456;BME280;6800;50.940;6.940;2023-02-28T02:48:39;102146.88;;;9.90;34.30
13456;BME280;6800;50.940;6.940;2023-02-28T02:52:49;102151.94;;;9.94;34.65
13456;BME280;6800;50.940;6.940;2023-02-28T02:56:52;102154.69;;;9.90;34.15
13456;BME280;6800;50.940;6.940;2023-02-28T03:00:57;102158.06;;;9.64;34.12
13456;BME280;6800;50.940;6.940;2023-02-28T03:05:04;102157.38;;;9.28;35.71
13456;BME280;6800;50.940;6.940;2023-02-28T03:09:07;102154.00;;;9.23;35.36
13456;BME280;6800;50.940;6.940;2023-02-28T03:13:23;102144.88;;;9.39;34.81
13456;BME280;6800;50.940;6.940;2023-02-28T03:17:48;102141.47;;;9.96;33.91
13456;BME280;6800;50.940;6.940;2023-02-28T03:26:20;102133.19;;;10.09;33.62
13456;BME280;6800;50.940;6.940;2023-02-28T03:30:38;102142.56;;;9.60;33.85
13456;BME280;6800;50.940;6.940;2023-02-28T03:34:50;102144.03;;;9.39;33.74
13456;BME280;6800;50.940;6.940;2023-02-28T03:39:00;102147.84;;;8.63;34.62
13456;BME280;6800;50.940;6.940;2023-02-28T03:43:10;102145.69;;;10.00;32.75
13456;BME280;6800;50.940;6.940;2023-02-28T03:47:27;102139.88;;;9.32;33.36
13456;BME280;6800;50.940;6.940;2023-02-28T03:51:31;102141.41;;;8.76;33.82
13456;BME280;6800;50.940;6.940;2023-02-28T03:55:42;102143.28;;;9.34;33.90
13456;BME280;6800;50.940;6.940;2023-02-28T03:59:47;102135.84;;;9.80;32.82
13456;BME280;6800;50.940;6.940;2023-02-28T04:03:51;102145.41;;;9.51;34.14
13456;BME280;6800;50.940;6.940;2023-02-28T04:07:52;102154.50;;;8.73;34.95
13456;BME280;6800;50.940;6.940;2023-02-28T04:11:55;102147.56;;;9.36;34.98
13456;BME280;6800;50.940;6.940;2023-02-28T04:15:59;102153.72;;;8.70;36.38
13456;BME280;6800;50.940;6.940;2023-02-28T04:20:00;102150.00;;;8.44;36.25
13456;BME280;6800;50.940;6.940;2023-02-28T04:24:02;102154.25;;;9.16;36.31
13456;BME280;6800;50.940;6.940;2023-02-28T04:28:04;102160.59;;;8.72;36.27
13456;BME280;6800;50.940;6.940;2023-02-28T04:32:05;102159.44;;;8.12;38.88
13456;BME280;6800;50.940;6.940;2023-02-28T04:36:08;102158.88;;;7.99;38.61
13456;BME280;6800;50.940;6.940;2023-02-28T04:40:10;102169.59;;;8.22;37.01
13456;BME280;6800;50.940;6.940;2023-02-28T04:44:12;102168.22;;;8.08;38.83
13456;BME280;6800;50.940;6.940;2023-02-28T04:48:13;102161.78;;;8.59;36.97
13456;BME280;6800;50.940;6.940;2023-02-28T04:52:15;102158.56;;;8.49;36.97
13456;BME280;6800;50.940;6.940;2023-02-28T04:56:17;102174.41;;;8.01;38.50
13456;BME280;6800;50.940;6.940;2023-02-28T05:00:19;102162.91;;;8.49;37.90
13456;BME280;6800;50.940;6.940;2023-02-28T05:04:20;102179.78;;;8.33;37.67
13456;BME280;6800;50.940;6.940;2023-02-28T05:08:22;102186.31;;;8.49;37.01
13456;BME280;6800;50.940;6.940;2023-02-28T05:12:23;102177.69;;;8.47;37.33
13456;BME280;6800;50.940;6.940;2023-02-28T05:16:24;102175.81;;;9.52;35.07
13456;BME280;6800;50.940;6.940;2023-02-28T05:20:26;102190.03;;;8.39;36.80
13456;BME280;6800;50.940;6.940;2023-02-28T05:24:27;102189.69;;;8.54;36.93
13456;BME280;6800;50.940;6.940;2023-02-28T05:28:29;102176.41;;;8.64;35.62
13456;BME280;6800;50.940;6.940;2023-02-28T05:32:30;102178.03;;;8.69;35.79
13456;BME280;6800;50.940;6.940;2023-02-28T05:36:31;102169.06;;;9.12;35.56
13456;BME280;6800;50.940;6.940;2023-02-28T05:40:33;102185.44;;;8.10;36.97
13456;BME280;6800;50.940;6.940;2023-02-28T05:44:35;102179.81;;;8.67;36.02
13456;BME280;6800;50.940;6.940;2023-02-28T05:48:38;102187.47;;;8.37;36.03
13456;BME280;6800;50.940;6.940;2023-02-28T05:52:40;102185.13;;;8.27;36.34
13456;BME280;6800;50.940;6.940;2023-02-28T05:56:41;102195.13;;;8.05;36.45
13456;BME280;6800;50.940;6.940;2023-02-28T06:00:45;102194.69;;;7.85;36.38
13456;BME280;6800;50.940;6.940;2023-02-28T06:04:46;102183.13;;;9.07;34.32
13456;BME280;6800;50.940;6.940;2023-02-28T06:08:48;102179.28;;;8.88;35.33
13456;BME280;6800;50.940;6.940;2023-02-28T06:12:49;102184.09;;;9.03;34.76
13456;BME280;6800;50.940;6.940;2023-02-28T06:16:51;102177.38;;;9.57;33.35
13456;BME280;6800;50.940;6.940;2023-02-28T06:20:53;102182.66;;;9.23;33.95
13456;BME280;6800;50.940;6.940;2023-02-28T06:24:55;102190.25;;;9.92;33.24
13456;BME280;6800;50.940;6.940;2023-02-28T06:28:58;102208.03;;;8.10;35.86
13456;BME280;6800;50.940;6.940;2023-02-28T06:32:59;102205.91;;;8.63;34.67
13456;BME280;6800;50.940;6.940;2023-02-28T06:37:00;102208.00;;;8.85;33.77
13456;BME280;6800;50.940;6.940;2023-02-28T06:41:03;102209.94;;;8.41;33.55
13456;BME280;6800;50.940;6.940;2023-02-28T06:45:06;102213.66;;;8.30;34.27
13456;BME280;6800;50.940;6.940;2023-02-28T06:49:11;102231.91;;;8.28;34.55
13456;BME280;6800;50.940;6.940;2023-02-28T06:53:13;102221.00;;;8.85;35.04
13456;BME280;6800;50.940;6.940;2023-02-28T06:57:14;102232.75;;;8.67;35.82
13456;BME280;6800;50.940;6.940;2023-02-28T07:01:16;102232.09;;;9.26;33.69
13456;BME280;6800;50.940;6.940;2023-02-28T07:05:18;102243.28;;;8.61;34.28
13456;BME280;6800;50.940;6.940;2023-02-28T07:09:20;102245.19;;;8.90;33.54
13456;BME280;6800;50.940;6.940;2023-02-28T07:13:22;102245.72;;;9.02;33.21
13456;BME280;6800;50.940;6.940;2023-02-28T07:17:24;102233.63;;;8.66;33.48
13456;BME280;6800;50.940;6.940;2023-02-28T07:21:25;102250.69;;;8.78;32.85
13456;BME280;6800;50.940;6.940;2023-02-28T07:25:28;102241.09;;;9.47;32.81
13456;BME280;6800;50.940;6.940;2023-02-28T07:29:29;102246.09;;;9.85;32.11
13456;BME280;6800;50.940;6.940;2023-02-28T07:33:31;102242.69;;;8.09;34.23
13456;BME280;6800;50.940;6.940;2023-02-28T07:37:32;102246.41;;;9.10;32.57
13456;BME280;6800;50.940;6.940;2023-02-28T07:41:37;102249.66;;;9.51;32.06
13456;BME280;6800;50.940;6.940;2023-02-28T07:45:44;102250.47;;;9.53;32.17
13456;BME280;6800;50.940;6.940;2023-02-28T07:49:45;102247.69;;;9.59;31.40
13456;BME280;6800;50.940;6.940;2023-02-28T07:53:47;102248.34;;;9.02;31.95
13456;BME280;6800;50.940;6.940;2023-02-28T07:57:48;102246.75;;;9.30;32.29
13456;BME280;6800;50.940;6.940;2023-02-28T08:01:50;102243.13;;;10.27;30.20
13456;BME280;6800;50.940;6.940;2023-02-28T08:05:51;102252.78;;;9.32;30.31
13456;BME280;6800;50.940;6.940;2023-02-28T08:09:53;102243.50;;;10.14;29.78
13456;BME280;6800;50.940;6.940;2023-02-28T08:13:55;102250.88;;;10.30;28.66
13456;BME280;6800;50.940;6.940;2023-02-28T08:17:56;102250.69;;;10.63;28.85
13456;BME280;6800;50.940;6.940;2023-02-28T08:21:58;102254.78;;;11.73;26.86
13456;BME280;6800;50.940;6.940;2023-02-28T08:25:59;102246.69;;;11.55;27.73
13456;BME280;6800;50.940;6.940;2023-02-28T08:30:01;102255.50;;;10.75;27.94
13456;BME280;6800;50.940;6.940;2023-02-28T08:34:09;102250.72;;;12.56;25.58
13456;BME280;6800;50.940;6.940;2023-02-28T08:38:11;102252.19;;;12.41;24.78
13456;BME280;6800;50.940;6.940;2023-02-28T08:42:13;102253.34;;;12.56;24.29
13456;BME280;6800;50.940;6.940;2023-02-28T08:46:14;102256.19;;;10.54;26.10
13456;BME280;6800;50.940;6.940;2023-02-28T08:50:16;102265.59;;;12.11;24.38
13456;BME280;6800;50.940;6.940;2023-02-28T08:54:17;102256.25;;;11.56;24.34
13456;BME280;6800;50.940;6.940;2023-02-28T08:58:20;102265.59;;;11.38;25.44
13456;BME280;6800;50.940;6.940;2023-02-28T09:02:21;102257.16;;;12.47;23.80
13456;BME280;6800;50.940;6.940;2023-02-28T09:06:24;102251.50;;;12.80;22.94
13456;BME280;6800;50.940;6.940;2023-02-28T09:10:26;102248.56;;;13.69;21.31
13456;BME280;6800;50.940;6.940;2023-02-28T09:14:28;102237.72;;;15.04;19.56
13456;BME280;6800;50.940;6.940;2023-02-28T09:18:29;102238.81;;;15.00;19.82
13456;BME280;6800;50.940;6.940;2023-02-28T09:22:31;102233.53;;;16.93;18.67
13456;BME280;6800;50.940;6.940;2023-02-28T09:26:32;102229.13;;;14.83;20.18
13456;BME280;6800;50.940;6.940;2023-02-28T09:30:49;102221.56;;;15.12;20.33
13456;BME280;6800;50.940;6.940;2023-02-28T09:34:51;102216.00;;;14.10;20.49
13456;BME280;6800;50.940;6.940;2023-02-28T09:38:52;102225.38;;;13.20;21.91
13456;BME280;6800;50.940;6.940;2023-02-28T09:42:56;102224.44;;;15.07;20.38
13456;BME280;6800;50.940;6.940;2023-02-28T09:47:32;102229.53;;;17.16;18.33
13456;BME280;6800;50.940;6.940;2023-02-28T09:51:43;102214.34;;;17.63;17.37
13456;BME280;6800;50.940;6.940;2023-02-28T09:55:52;102219.94;;;18.14;17.51
13456;BME280;6800;50.940;6.940;2023-02-28T10:00:04;102207.72;;;19.18;16.70
13456;BME280;6800;50.940;6.940;2023-02-28T10:04:28;102217.34;;;15.25;20.35
13456;BME280;6800;50.940;6.940;2023-02-28T10:08:40;102234.06;;;14.37;20.66
13456;BME280;6800;50.940;6.940;2023-02-28T10:12:47;102219.03;;;17.44;17.94
13456;BME280;6800;50.940;6.940;2023-02-28T10:17:11;102219.28;;;16.04;19.51
13456;BME280;6800;50.940;6.940;2023-02-28T10:21:21;102217.75;;;16.00;19.40
13456;BME280;6800;50.940;6.940;2023-02-28T10:25:28;102220.53;;;15.31;20.46
13456;BME280;6800;50.940;6.940;2023-02-28T10:29:32;102213.81;;;17.29;18.11
13456;BME280;6800;50.940;6.940;2023-02-28T10:33:35;102216.06;;;13.33;21.73
13456;BME280;6800;50.940;6.940;2023-02-28T10:37:41;102204.41;;;18.36;17.34
13456;BME280;6800;50.940;6.940;2023-02-28T10:41:43;102212.47;;;16.31;19.45
13456;BME280;6800;50.940;6.940;2023-02-28T10:45:57;102219.16;;;14.90;19.96
13456;BME280;6800;50.940;6.940;2023-02-28T10:49:59;102209.59;;;15.89;19.71
13456;BME280;6800;50.940;6.940;2023-02-28T10:54:02;102210.72;;;12.52;23.25
13456;BME280;6800;50.940;6.940;2023-02-28T10:58:21;102205.38;;;14.85;20.84
13456;BME280;6800;50.940;6.940;2023-02-28T11:02:34;102201.63;;;15.90;20.11
13456;BME280;6800;50.940;6.940;2023-02-28T11:06:37;102192.19;;;16.17;19.09
13456;BME280;6800;50.940;6.940;2023-02-28T11:10:38;102176.28;;;14.18;21.51
13456;BME280;6800;50.940;6.940;2023-02-28T11:14:49;102172.78;;;17.09;19.32
13456;BME280;6800;50.940;6.940;2023-02-28T11:18:55;102167.00;;;19.94;16.32
13456;BME280;6800;50.940;6.940;2023-02-28T11:22:58;102171.47;;;20.17;16.28
13456;BME280;6800;50.940;6.940;2023-02-28T11:27:02;102161.72;;;18.81;17.49
13456;BME280;6800;50.940;6.940;2023-02-28T11:35:23;102164.16;;;13.21;23.73
13456;BME280;6800;50.940;6.940;2023-02-28T11:39:26;102165.75;;;18.74;17.94
13456;BME280;6800;50.940;6.940;2023-02-28T11:56:52;102153.59;;;19.09;17.36
13456;BME280;6800;50.940;6.940;2023-02-28T12:01:18;102152.38;;;20.49;16.25
13456;BME280;6800;50.940;6.940;2023-02-28T12:05:34;102153.81;;;20.05;16.69
13456;BME280;6800;50.940;6.940;2023-02-28T12:10:18;102153.69;;;18.70;17.40
13456;BME280;6800;50.940;6.940;2023-02-28T12:23:43;102142.47;;;16.11;20.29
13456;BME280;6800;50.940;6.940;2023-02-28T12:27:48;102144.59;;;14.40;21.39
13456;BME280;6800;50.940;6.940;2023-02-28T12:32:13;102147.56;;;13.78;22.04
13456;BME280;6800;50.940;6.940;2023-02-28T12:36:18;102151.06;;;13.21;23.23
13456;BME280;6800;50.940;6.940;2023-02-28T12:40:29;102129.59;;;14.76;22.17
13456;BME280;6800;50.940;6.940;2023-02-28T12:44:40;102129.41;;;13.55;22.28
13456;BME280;6800;50.940;6.940;2023-02-28T12:48:52;102146.06;;;13.72;22.84
13456;BME280;6800;50.940;6.940;2023-02-28T12:53:06;102134.41;;;13.02;23.59
13456;BME280;6800;50.940;6.940;2023-02-28T12:57:18;102122.94;;;13.04;23.78
13456;BME280;6800;50.940;6.940;2023-02-28T13:10:09;102100.72;;;13.87;22.88
13456;BME280;6800;50.940;6.940;2023-02-28T13:14:35;102107.19;;;13.43;23.38
13456;BME280;6800;50.940;6.940;2023-02-28T13:18:39;102097.84;;;13.75;22.89
13456;BME280;6800;50.940;6.940;2023-02-28T13:22:46;102099.22;;;13.07;24.13
13456;BME280;6800;50.940;6.940;2023-02-28T13:38:57;102095.13;;;14.99;22.43
13456;BME280;6800;50.940;6.940;2023-02-28T13:43:03;102081.34;;;15.75;21.31
13456;BME280;6800;50.940;6.940;2023-02-28T13:47:23;102074.94;;;15.63;21.28
13456;BME280;6800;50.940;6.940;2023-02-28T13:51:39;102076.88;;;14.28;22.62
13456;BME280;6800;50.940;6.940;2023-02-28T14:09:02;102073.38;;;14.96;21.83
13456;BME280;6800;50.940;6.940;2023-02-28T14:13:36;102058.03;;;15.99;21.04
13456;BME280;6800;50.940;6.940;2023-02-28T14:17:36;102060.22;;;14.29;22.90
13456;BME280;6800;50.940;6.940;2023-02-28T14:21:47;102060.50;;;14.23;23.79
13456;BME280;6800;50.940;6.940;2023-02-28T14:26:14;102034.56;;;15.65;21.57
13456;BME280;6800;50.940;6.940;2023-02-28T14:30:37;102051.91;;;14.88;22.52
13456;BME280;6800;50.940;6.940;2023-02-28T14:34:57;102057.66;;;13.91;23.20
13456;BME280;6800;50.940;6.940;2023-02-28T14:39:06;102039.88;;;13.79;24.06
13456;BME280;6800;50.940;6.940;2023-02-28T14:43:21;102047.16;;;13.37;24.47
13456;BME280;6800;50.940;6.940;2023-02-28T14:47:27;102040.56;;;14.19;23.31
13456;BME280;6800;50.940;6.940;2023-02-28T14:51:29;102030.16;;;15.95;21.46
13456;BME280;6800;50.940;6.940;2023-02-28T14:55:35;102051.13;;;14.00;23.50
13456;BME280;6800;50.940;6.940;2023-02-28T14:59:37;102039.25;;;14.10;23.19
13456;BME280;6800;50.940;6.940;2023-02-28T15:03:39;102046.38;;;14.08;23.42
13456;BME280;6800;50.940;6.940;2023-02-28T15:07:40;102035.03;;;14.42;22.74
13456;BME280;6800;50.940;6.940;2023-02-28T15:11:45;102035.69;;;12.62;24.13
13456;BME280;6800;50.940;6.940;2023-02-28T15:15:56;102030.06;;;14.53;22.56
13456;BME280;6800;50.940;6.940;2023-02-28T15:20:04;102030.94;;;14.53;21.91
13456;BME280;6800;50.940;6.940;2023-02-28T15:28:16;102014.41;;;15.63;20.76
13456;BME280;6800;50.940;6.940;2023-02-28T15:32:30;102025.84;;;14.83;21.81
13456;BME280;6800;50.940;6.940;2023-02-28T15:36:33;102027.56;;;14.84;21.92
13456;BME280;6800;50.940;6.940;2023-02-28T15:40:42;102016.31;;;15.91;21.23
13456;BME280;6800;50.940;6.940;2023-02-28T15:44:44;102020.28;;;15.69;21.44
13456;BME280;6800;50.940;6.940;2023-02-28T15:48:54;102023.56;;;14.26;22.75
13456;BME280;6800;50.940;6.940;2023-02-28T15:52:56;102025.59;;;15.36;21.71
13456;BME280;6800;50.940;6.940;2023-02-28T15:57:05;102022.09;;;15.04;22.54
13456;BME280;6800;50.940;6.940;2023-02-28T16:01:20;102020.03;;;14.09;23.88
13456;BME280;6800;50.940;6.940;2023-02-28T16:09:29;102034.31;;;14.72;22.58
13456;BME280;6800;50.940;6.940;2023-02-28T16:13:35;102033.25;;;14.42;23.07
13456;BME280;6800;50.940;6.940;2023-02-28T16:17:38;102039.50;;;13.51;24.18
13456;BME280;6800;50.940;6.940;2023-02-28T16:21:40;102035.06;;;14.06;23.65
13456;BME280;6800;50.940;6.940;2023-02-28T16:25:43;102053.03;;;13.61;24.44
13456;BME280;6800;50.940;6.940;2023-02-28T16:29:46;102041.56;;;13.99;24.15
13456;BME280;6800;50.940;6.940;2023-02-28T16:33:48;102034.06;;;13.37;23.82
13456;BME280;6800;50.940;6.940;2023-02-28T16:37:51;102043.06;;;14.39;23.41
13456;BME280;6800;50.940;6.940;2023-02-28T16:41:52;102054.53;;;14.88;22.90
13456;BME280;6800;50.940;6.940;2023-02-28T16:45:55;102044.16;;;13.82;24.19
13456;BME280;6800;50.940;6.940;2023-02-28T16:50:01;102050.09;;;14.38;23.60
13456;BME280;6800;50.940;6.940;2023-02-28T16:54:02;102052.19;;;15.47;22.39
13456;BME280;6800;50.940;6.940;2023-02-28T16:58:05;102060.06;;;14.66;23.55
13456;BME280;6800;50.940;6.940;2023-02-28T17:02:14;102065.19;;;14.84;22.96
13456;BME280;6800;50.940;6.940;2023-02-28T17:06:22;102060.38;;;14.43;23.66
13456;BME280;6800;50.940;6.940;2023-02-28T17:10:26;102069.84;;;14.28;23.76
13456;BME280;6800;50.940;6.940;2023-02-28T17:14:27;102076.75;;;14.82;23.47
13456;BME280;6800;50.940;6.940;2023-02-28T17:18:29;102085.53;;;13.94;24.57
13456;BME280;6800;50.940;6.940;2023-02-28T17:22:34;102087.25;;;13.95;24.84
13456;BME280;6800;50.940;6.940;2023-02-28T17:26:36;102088.28;;;14.45;24.38
13456;BME280;6800;50.940;6.940;2023-02-28T17:30:37;102087.22;;;14.14;24.62
13456;BME280;6800;50.940;6.940;2023-02-28T17:34:39;102105.44;;;13.62;25.49
13456;BME280;6800;50.940;6.940;2023-02-28T17:38:40;102113.91;;;14.04;25.40
13456;BME280;6800;50.940;6.940;2023-02-28T17:42:43;102113.94;;;13.67;25.85
13456;BME280;6800;50.940;6.940;2023-02-28T17:46:45;102123.47;;;13.70;25.64
13456;BME280;6800;50.940;6.940;2023-02-28T17:50:47;102121.56;;;13.16;26.77
13456;BME280;6800;50.940;6.940;2023-02-28T17:54:48;102112.69;;;13.76;26.12
13456;BME280;6800;50.940;6.940;2023-02-28T17:58:52;102119.41;;;14.17;25.59
13456;BME280;6800;50.940;6.940;2023-02-28T18:02:53;102118.41;;;14.20;25.36
13456;BME280;6800;50.940;6.940;2023-02-28T18:06:55;102118.06;;;13.15;26.49
13456;BME280;6800;50.940;6.940;2023-02-28T18:11:01;102123.44;;;13.51;26.49
13456;BME280;6800;50.940;6.940;2023-02-28T18:15:02;102119.69;;;13.38;27.27
13456;BME280;6800;50.940;6.940;2023-02-28T18:19:04;102120.44;;;13.01;28.05
13456;BME280;6800;50.940;6.940;2023-02-28T18:23:07;102119.75;;;13.55;27.88
13456;BME280;6800;50.940;6.940;2023-02-28T18:27:08;102119.97;;;13.69;27.39
13456;BME280;6800;50.940;6.940;2023-02-28T18:31:13;102122.66;;;13.30;28.39
13456;BME280;6800;50.940;6.940;2023-02-28T18:35:16;102129.75;;;13.84;28.43
13456;BME280;6800;50.940;6.940;2023-02-28T18:39:34;102127.91;;;13.49;28.38
13456;BME280;6800;50.940;6.940;2023-02-28T18:43:36;102137.94;;;12.17;30.85
13456;BME280;6800;50.940;6.940;2023-02-28T18:47:40;102134.66;;;13.55;28.57
13456;BME280;6800;50.940;6.940;2023-02-28T18:51:42;102135.06;;;12.87;29.99
13456;BME280;6800;50.940;6.940;2023-02-28T18:55:45;102144.63;;;13.08;29.26
13456;BME280;6800;50.940;6.940;2023-02-28T18:59:47;102146.41;;;13.46;28.71
13456;BME280;6800;50.940;6.940;2023-02-28T19:03:49;102150.47;;;12.73;30.51
13456;BME280;6800;50.940;6.940;2023-02-28T19:07:51;102154.59;;;13.20;29.62
13456;BME280;6800;50.940;6.940;2023-02-28T19:11:52;102158.00;;;13.02;29.52
13456;BME280;6800;50.940;6.940;2023-02-28T19:16:00;102158.78;;;12.20;30.98
13456;BME280;6800;50.940;6.940;2023-02-28T19:20:03;102157.75;;;11.80;32.30
13456;BME280;6800;50.940;6.940;2023-02-28T19:24:05;102158.38;;;13.33;29.59
13456;BME280;6800;50.940;6.940;2023-02-28T19:28:06;102165.41;;;12.71;30.76
13456;BME280;6800;50.940;6.940;2023-02-28T19:32:08;102158.97;;;12.57;30.58
13456;BME280;6800;50.940;6.940;2023-02-28T19:36:11;102175.91;;;11.84;31.51
13456;BME280;6800;50.940;6.940;2023-02-28T19:40:12;102164.78;;;12.44;31.36
13456;BME280;6800;50.940;6.940;2023-02-28T19:44:14;102168.03;;;12.50;30.74
13456;BME280;6800;50.940;6.940;2023-02-28T19:48:15;102179.59;;;11.79;31.69
13456;BME280;6800;50.940;6.940;2023-02-28T19:52:16;102177.81;;;12.87;30.18
13456;BME280;6800;50.940;6.940;2023-02-28T19:56:18;102176.03;;;12.03;31.64
13456;BME280;6800;50.940;6.940;2023-02-28T20:00:21;102171.63;;;12.26;31.63
13456;BME280;6800;50.940;6.940;2023-02-28T20:04:23;102182.56;;;11.69;32.18
13456;BME280;6800;50.940;6.940;2023-02-28T20:08:25;102171.56;;;12.06;31.22
13456;BME280;6800;50.940;6.940;2023-02-28T20:12:28;102184.53;;;11.86;31.72
13456;BME280;6800;50.940;6.940;2023-02-28T20:16:30;102182.06;;;11.83;31.81
13456;BME280;6800;50.940;6.940;2023-02-28T20:20:32;102186.47;;;11.33;32.38
13456;BME280;6800;50.940;6.940;2023-02-28T20:24:37;102177.53;;;12.31;31.15
13456;BME280;6800;50.940;6.940;2023-02-28T20:28:39;102170.22;;;12.18;30.88
13456;BME280;6800;50.940;6.940;2023-02-28T20:32:43;102175.66;;;11.19;32.84
13456;BME280;6800;50.940;6.940;2023-02-28T20:36:45;102175.22;;;11.31;31.93
13456;BME280;6800;50.940;6.940;2023-02-28T20:40:46;102165.16;;;12.13;30.98
13456;BME280;6800;50.940;6.940;2023-02-28T20:44:48;102168.84;;;11.86;31.30
13456;BME280;6800;50.940;6.940;2023-02-28T20:48:50;102168.06;;;11.84;31.38
13456;BME280;6800;50.940;6.940;2023-02-28T20:52:52;102173.75;;;10.99;32.20
13456;BME280;6800;50.940;6.940;2023-02-28T20:56:53;102171.41;;;12.09;31.07
13456;BME280;6800;50.940;6.940;2023-02-28T21:00:59;102161.13;;;11.35;32.32
13456;BME280;6800;50.940;6.940;2023-02-28T21:05:01;102159.13;;;11.90;31.15
13456;BME280;6800;50.940;6.940;2023-02-28T21:09:07;102152.56;;;12.23;30.45
13456;BME280;6800;50.940;6.940;2023-02-28T21:13:09;102156.59;;;12.31;31.16
13456;BME280;6800;50.940;6.940;2023-02-28T21:17:10;102157.47;;;11.87;30.88
13456;BME280;6800;50.940;6.940;2023-02-28T21:21:14;102162.53;;;11.21;32.54
13456;BME280;6800;50.940;6.940;2023-02-28T21:25:15;102162.00;;;11.59;32.79
13456;BME280;6800;50.940;6.940;2023-02-28T21:29:17;102165.81;;;11.50;32.32
13456;BME280;6800;50.940;6.940;2023-02-28T21:33:18;102163.06;;;11.06;32.62
13456;BME280;6800;50.940;6.940;2023-02-28T21:37:20;102172.13;;;11.20;33.00
13456;BME280;6800;50.940;6.940;2023-02-28T21:41:22;102177.94;;;11.28;32.78
13456;BME280;6800;50.940;6.940;2023-02-28T21:45:26;102175.41;;;11.02;32.52
13456;BME280;6800;50.940;6.940;2023-02-28T21:49:29;102186.72;;;11.03;32.69
13456;BME280;6800;50.940;6.940;2023-02-28T21:53:32;102180.41;;;11.56;32.46
13456;BME280;6800;50.940;6.940;2023-02-28T21:57:33;102186.13;;;11.19;33.12
13456;BME280;6800;50.940;6.940;2023-02-28T22:01:38;102184.34;;;10.95;33.56
13456;BME280;6800;50.940;6.940;2023-02-28T22:05:40;102187.16;;;10.89;33.36
13456;BME280;6800;50.940;6.940;2023-02-28T22:09:41;102187.72;;;11.23;33.27
13456;BME280;6800;50.940;6.940;2023-02-28T22:13:46;102192.97;;;10.97;32.94
13456;BME280;6800;50.940;6.940;2023-02-28T22:17:50;102195.03;;;11.61;32.38
13456;BME280;6800;50.940;6.940;2023-02-28T22:21:52;102198.31;;;11.43;32.62
13456;BME280;6800;50.940;6.940;2023-02-28T22:25:54;102196.81;;;11.12;33.42
13456;BME280;6800;50.940;6.940;2023-02-28T22:29:56;102187.00;;;11.43;33.25
13456;BME280;6800;50.940;6.940;2023-02-28T22:34:04;102184.25;;;10.46;35.23
13456;BME280;6800;50.940;6.940;2023-02-28T22:38:06;102182.41;;;10.49;34.59
13456;BME280;6800;50.940;6.940;2023-02-28T22:42:08;102187.00;;;11.18;33.58
13456;BME280;6800;50.940;6.940;2023-02-28T22:46:11;102184.94;;;11.28;33.71
13456;BME280;6800;50.940;6.940;2023-02-28T22:50:13;102184.09;;;11.50;33.22
13456;BME280;6800;50.940;6.940;2023-02-28T22:54:15;102180.91;;;11.67;33.02
13456;BME280;6800;50.940;6.940;2023-02-28T22:58:16;102172.25;;;11.17;33.83
13456;BME280;6800;50.940;6.940;2023-02-28T23:02:18;102173.06;;;10.68;34.53
13456;BME280;6800;50.940;6.940;2023-02-28T23:06:26;102171.22;;;10.72;34.63
13456;BME280;6800;50.940;6.940;2023-02-28T23:10:28;102182.09;;;10.84;34.41